Time;durP1;ratioP1;P1;durP2;ratioP2;P2;SDS_P1;SDS_P2;PMS_P1;PMS_P2;Temp;Humidity;BMP_temperature;BMP_pressure;BME280_temperature;BME280_humidity;BME280_pressure;Samples;Min_cycle;Max_cycle;Signal;HPM_P1;HPM_P2
2023/05/10 00:00:40;;;;;;;1.23;1.10;;;19.60;82.20;;;;;;5035698;28;45267;-72
2023/05/10 00:03:07;;;;;;;1.15;1.00;;;19.50;82.10;;;;;;5021579;28;45221;-72
2023/05/10 00:05:33;;;;;;;0.80;0.73;;;19.60;82.30;;;;;;5022211;28;45200;-72
2023/05/10 00:08:00;;;;;;;1.02;0.93;;;19.60;82.30;;;;;;5041486;28;45306;-72
2023/05/10 00:10:28;;;;;;;1.48;1.08;;;19.60;82.30;;;;;;5042377;28;45316;-73
2023/05/10 00:12:55;;;;;;;0.80;0.80;;;19.60;82.20;;;;;;5042558;28;45415;-72
2023/05/10 00:15:22;;;;;;;1.23;1.00;;;19.50;82.10;;;;;;5042215;28;47514;-73
2023/05/10 00:17:49;;;;;;;1.08;0.90;;;19.50;82.00;;;;;;5042268;28;45358;-73
2023/05/10 00:20:15;;;;;;;0.77;0.77;;;19.50;82.00;;;;;;5042365;28;45316;-72
2023/05/10 00:22:42;;;;;;;1.00;0.80;;;19.50;81.90;;;;;;5041976;28;45291;-73
2023/05/10 00:25:10;;;;;;;1.23;1.00;;;19.60;82.00;;;;;;5041821;28;47789;-72
2023/05/10 00:27:38;;;;;;;0.90;0.80;;;19.60;82.00;;;;;;5042386;28;45379;-73
2023/05/10 00:30:06;;;;;;;0.90;0.70;;;19.50;81.80;;;;;;5042422;28;45221;-72
2023/05/10 00:32:32;;;;;;;0.80;0.70;;;19.50;81.70;;;;;;5042121;28;45513;-72
2023/05/10 00:34:59;;;;;;;0.98;0.88;;;19.60;81.80;;;;;;5041901;28;45221;-73
2023/05/10 00:37:26;;;;;;;0.80;0.80;;;19.60;81.80;;;;;;5042057;28;45237;-72
2023/05/10 00:39:53;;;;;;;0.82;0.77;;;19.60;81.90;;;;;;5041945;28;45279;-72
2023/05/10 00:42:19;;;;;;;0.90;0.70;;;19.50;81.80;;;;;;5041850;28;45550;-72
2023/05/10 00:44:47;;;;;;;1.13;1.02;;;19.50;81.90;;;;;;5041428;28;47374;-73
2023/05/10 00:47:14;;;;;;;1.00;0.85;;;19.50;81.90;;;;;;5040109;28;45232;-72
2023/05/10 00:49:41;;;;;;;0.90;0.75;;;19.50;81.80;;;;;;5041880;28;45411;-72
2023/05/10 00:52:09;;;;;;;0.73;0.70;;;19.50;81.90;;;;;;5033681;28;45474;-72
2023/05/10 00:54:37;;;;;;;1.02;0.90;;;19.50;81.90;;;;;;5041338;28;46323;-73
2023/05/10 00:57:03;;;;;;;0.70;0.70;;;19.50;81.90;;;;;;5041495;27;45338;-73
2023/05/10 00:59:30;;;;;;;1.00;0.70;;;19.50;81.70;;;;;;5041591;28;45205;-73
2023/05/10 01:01:59;;;;;;;0.80;0.70;;;19.50;81.80;;;;;;5041241;28;45438;-73
2023/05/10 01:04:26;;;;;;;0.70;0.70;;;19.50;81.80;;;;;;5040009;27;46463;-73
2023/05/10 01:06:53;;;;;;;0.57;0.50;;;19.50;81.80;;;;;;5041320;28;45217;-73
2023/05/10 01:09:20;;;;;;;0.80;0.50;;;19.50;81.70;;;;;;5041519;28;45381;-72
2023/05/10 01:11:47;;;;;;;0.93;0.60;;;19.50;81.60;;;;;;5041834;28;45275;-72
2023/05/10 01:14:15;;;;;;;0.70;0.60;;;19.50;81.50;;;;;;5041240;28;45492;-73
2023/05/10 01:16:45;;;;;;;1.13;0.60;;;19.50;81.50;;;;;;5041660;28;45247;-73
2023/05/10 01:19:19;;;;;;;0.47;0.47;;;19.50;81.50;;;;;;5041727;28;45343;-73
2023/05/10 01:21:54;;;;;;;0.80;0.70;;;19.50;81.50;;;;;;5039188;28;45303;-72
2023/05/10 01:24:46;;;;;;;0.90;0.60;;;19.50;81.50;;;;;;5040913;27;46291;-73
2023/05/10 01:27:36;;;;;;;1.30;0.50;;;19.50;81.60;;;;;;5037798;28;45415;-73
2023/05/10 01:30:24;;;;;;;0.60;0.57;;;19.50;81.60;;;;;;5041872;28;45336;-73
2023/05/10 01:33:00;;;;;;;0.60;0.55;;;19.50;81.60;;;;;;5041502;28;45403;-73
2023/05/10 01:35:34;;;;;;;1.05;0.50;;;19.50;81.70;;;;;;5040451;28;48044;-73
2023/05/10 01:38:08;;;;;;;1.02;0.70;;;19.50;81.70;;;;;;5041010;28;45336;-72
2023/05/10 01:40:40;;;;;;;0.73;0.60;;;19.60;81.90;;;;;;5041728;28;45297;-73
2023/05/10 01:43:15;;;;;;;1.27;0.82;;;19.50;81.80;;;;;;5041775;28;45516;-73
2023/05/10 01:45:51;;;;;;;0.60;0.60;;;19.50;81.80;;;;;;5039792;27;46254;-73
2023/05/10 01:48:21;;;;;;;0.82;0.60;;;19.50;81.80;;;;;;5041098;27;45419;-73
2023/05/10 01:50:51;;;;;;;1.02;0.57;;;19.50;81.80;;;;;;5040391;28;45363;-72
2023/05/10 01:53:21;;;;;;;0.50;0.50;;;19.50;81.70;;;;;;5040680;28;45338;-73
2023/05/10 01:55:52;;;;;;;0.65;0.60;;;19.50;81.60;;;;;;5040234;28;46320;-73
2023/05/10 01:58:22;;;;;;;2.45;0.77;;;19.50;81.60;;;;;;5040395;28;45950;-73
2023/05/10 02:00:51;;;;;;;0.95;0.60;;;19.50;81.60;;;;;;5040882;28;45401;-72
2023/05/10 02:03:21;;;;;;;0.50;0.47;;;19.50;81.60;;;;;;5040076;27;45584;-73
2023/05/10 02:05:50;;;;;;;0.85;0.60;;;19.50;81.60;;;;;;5040534;28;45366;-72
2023/05/10 02:08:18;;;;;;;1.00;0.60;;;19.50;81.70;;;;;;5040614;28;46119;-73
2023/05/10 02:10:46;;;;;;;2.22;0.68;;;19.50;81.80;;;;;;5041067;28;45373;-73
2023/05/10 02:13:15;;;;;;;0.60;0.50;;;19.50;81.80;;;;;;5040824;28;45559;-73
2023/05/10 02:15:43;;;;;;;0.50;0.50;;;19.50;81.80;;;;;;5039918;28;46994;-73
2023/05/10 02:18:12;;;;;;;1.92;0.60;;;19.50;81.90;;;;;;5040996;28;45320;-73
2023/05/10 02:20:41;;;;;;;1.25;0.60;;;19.50;81.90;;;;;;5040661;27;45440;-73
2023/05/10 02:23:09;;;;;;;1.63;0.60;;;19.50;81.90;;;;;;5032250;28;45400;-72
2023/05/10 02:25:38;;;;;;;0.70;0.50;;;19.50;81.90;;;;;;5039865;28;48202;-72
2023/05/10 02:28:07;;;;;;;0.85;0.50;;;19.50;81.90;;;;;;5043387;28;45396;-73
2023/05/10 02:30:35;;;;;;;0.75;0.60;;;19.50;81.90;;;;;;5043710;28;45192;-73
2023/05/10 02:33:04;;;;;;;0.70;0.55;;;19.50;81.80;;;;;;5043595;28;45397;-73
2023/05/10 02:35:33;;;;;;;0.70;0.45;;;19.50;81.70;;;;;;5043301;28;45520;-73
2023/05/10 02:38:02;;;;;;;1.25;0.50;;;19.50;81.60;;;;;;5043257;28;45213;-73
2023/05/10 02:40:30;;;;;;;0.73;0.63;;;19.50;81.70;;;;;;5043638;28;45507;-73
2023/05/10 02:43:00;;;;;;;0.93;0.50;;;19.50;81.70;;;;;;5037386;28;45407;-73
2023/05/10 02:45:30;;;;;;;0.98;0.68;;;19.50;81.70;;;;;;5042033;28;46305;-73
2023/05/10 02:47:57;;;;;;;1.55;0.60;;;19.50;81.70;;;;;;5042983;28;45492;-73
2023/05/10 02:50:28;;;;;;;0.70;0.55;;;19.50;81.70;;;;;;5042791;28;45362;-73
2023/05/10 02:53:02;;;;;;;0.65;0.65;;;19.50;81.70;;;;;;5043113;28;45426;-72
2023/05/10 02:55:35;;;;;;;0.57;0.57;;;19.50;81.70;;;;;;5043366;28;47259;-72
2023/05/10 02:58:03;;;;;;;0.80;0.70;;;19.50;81.70;;;;;;5043028;28;45314;-73
2023/05/10 03:00:30;;;;;;;1.85;0.90;;;19.50;81.90;;;;;;5043313;28;45410;-73
2023/05/10 03:02:57;;;;;;;0.60;0.60;;;19.50;81.80;;;;;;5043381;28;45181;-73
2023/05/10 03:05:24;;;;;;;0.75;0.70;;;19.50;81.70;;;;;;5042725;28;46315;-73
2023/05/10 03:07:51;;;;;;;0.93;0.70;;;19.50;82.80;;;;;;5043084;28;45335;-73
2023/05/10 03:10:19;;;;;;;1.23;0.70;;;19.40;81.70;;;;;;5043410;28;45383;-73
2023/05/10 03:12:58;;;;;;;1.25;0.95;;;19.40;81.70;;;;;;5042741;28;45491;-73
2023/05/10 03:15:37;;;;;;;0.90;0.80;;;19.50;81.80;;;;;;5042713;28;46070;-73
2023/05/10 03:18:10;;;;;;;1.00;0.80;;;19.50;81.70;;;;;;5042645;28;45599;-73
2023/05/10 03:20:41;;;;;;;1.40;0.90;;;19.50;81.70;;;;;;5042616;28;45346;-73
2023/05/10 03:23:14;;;;;;;0.98;0.85;;;19.50;81.70;;;;;;5042861;28;45219;-73
2023/05/10 03:25:44;;;;;;;0.85;0.80;;;19.50;81.70;;;;;;5041931;28;48367;-73
2023/05/10 03:28:13;;;;;;;0.93;0.82;;;19.50;81.70;;;;;;5034984;28;45377;-73
2023/05/10 03:30:41;;;;;;;0.98;0.80;;;19.50;81.60;;;;;;5042893;28;45465;-73
2023/05/10 03:33:08;;;;;;;1.08;0.95;;;19.50;81.60;;;;;;5042553;28;45465;-73
2023/05/10 03:35:35;;;;;;;1.00;0.90;;;19.50;81.70;;;;;;5042001;28;46468;-73
2023/05/10 03:38:02;;;;;;;1.27;1.00;;;19.50;81.70;;;;;;5042582;28;45345;-73
2023/05/10 03:40:31;;;;;;;1.33;1.10;;;19.50;81.70;;;;;;5042948;28;45377;-73
2023/05/10 03:42:58;;;;;;;1.25;1.00;;;19.50;81.80;;;;;;5043003;28;45309;-73
2023/05/10 03:45:26;;;;;;;2.00;1.20;;;19.50;81.80;;;;;;5042239;28;47384;-73
2023/05/10 03:47:53;;;;;;;1.40;1.10;;;19.50;81.90;;;;;;5042770;28;45701;-73
2023/05/10 03:50:20;;;;;;;1.30;1.20;;;19.50;81.90;;;;;;5041780;28;45337;-73
2023/05/10 03:52:47;;;;;;;1.38;1.20;;;19.40;81.90;;;;;;5041300;28;45483;-73
2023/05/10 03:55:14;;;;;;;1.27;1.17;;;19.50;82.00;;;;;;5042505;28;46736;-73
2023/05/10 03:57:41;;;;;;;1.50;1.35;;;19.50;81.90;;;;;;5042369;28;46126;-73
2023/05/10 04:00:09;;;;;;;1.38;1.10;;;19.50;81.90;;;;;;5034361;28;45212;-73
2023/05/10 04:02:37;;;;;;;1.50;1.30;;;19.50;81.90;;;;;;5042545;28;45286;-72
2023/05/10 04:05:04;;;;;;;1.90;1.35;;;19.50;81.80;;;;;;5041933;28;46608;-73
2023/05/10 04:07:31;;;;;;;2.05;1.40;;;19.50;81.70;;;;;;5042510;28;45339;-73
2023/05/10 04:09:58;;;;;;;1.90;1.30;;;19.50;81.60;;;;;;5042303;27;45261;-73
2023/05/10 04:12:25;;;;;;;2.13;1.35;;;19.50;81.60;;;;;;5042381;28;45240;-73
2023/05/10 04:14:51;;;;;;;2.08;1.40;;;19.50;81.60;;;;;;5041473;28;47480;-73
2023/05/10 04:17:18;;;;;;;2.33;1.35;;;19.50;81.60;;;;;;5041890;28;45323;-73
2023/05/10 04:19:46;;;;;;;2.38;1.30;;;19.50;81.60;;;;;;5042316;28;45358;-73
2023/05/10 04:22:13;;;;;;;1.63;1.35;;;19.50;81.80;;;;;;5042725;28;45191;-73
2023/05/10 04:24:40;;;;;;;3.67;1.63;;;19.50;81.70;;;;;;5042300;28;47336;-73
2023/05/10 04:27:07;;;;;;;2.17;1.60;;;19.50;81.80;;;;;;5041524;28;45743;-73
2023/05/10 04:29:33;;;;;;;3.25;1.55;;;19.50;81.80;;;;;;5042110;28;45208;-73
2023/05/10 04:32:00;;;;;;;2.33;1.70;;;19.50;81.90;;;;;;5042409;28;45203;-73
2023/05/10 04:34:27;;;;;;;3.47;2.03;;;19.50;81.80;;;;;;5042038;28;46283;-73
2023/05/10 04:36:55;;;;;;;1.70;1.40;;;19.50;81.90;;;;;;5041732;28;45578;-73
2023/05/10 04:39:22;;;;;;;1.77;1.40;;;19.50;81.90;;;;;;5041674;28;45474;-73
2023/05/10 04:41:48;;;;;;;2.42;1.30;;;19.50;81.80;;;;;;5042083;28;45216;-73
2023/05/10 04:44:15;;;;;;;1.88;1.30;;;19.50;81.80;;;;;;5041935;28;46275;-73
2023/05/10 04:46:42;;;;;;;1.33;1.17;;;19.50;81.70;;;;;;5040648;28;45274;-73
2023/05/10 04:49:09;;;;;;;1.40;1.10;;;19.50;81.50;;;;;;5027881;28;45389;-73
2023/05/10 04:51:35;;;;;;;1.42;1.15;;;19.50;81.40;;;;;;5020592;28;45444;-73
2023/05/10 04:54:04;;;;;;;1.23;1.10;;;19.50;81.40;;;;;;5040901;28;46479;-73
2023/05/10 04:56:30;;;;;;;1.33;1.10;;;19.50;81.40;;;;;;5041135;27;45287;-73
2023/05/10 04:58:57;;;;;;;2.28;1.20;;;19.50;81.40;;;;;;5041894;28;45283;-73
2023/05/10 05:01:24;;;;;;;1.60;1.27;;;19.50;81.30;;;;;;5041607;28;45345;-73
2023/05/10 05:03:52;;;;;;;1.30;1.10;;;19.50;81.40;;;;;;5041241;28;47910;-73
2023/05/10 05:06:20;;;;;;;1.70;1.20;;;19.50;81.30;;;;;;5041430;28;45383;-73
2023/05/10 05:08:49;;;;;;;2.17;1.30;;;19.50;81.30;;;;;;5041612;28;45471;-73
2023/05/10 05:11:17;;;;;;;1.42;1.17;;;19.50;81.20;;;;;;5041993;27;45320;-73
2023/05/10 05:13:44;;;;;;;1.20;1.10;;;19.50;81.30;;;;;;5041422;28;47530;-73
2023/05/10 05:16:11;;;;;;;1.65;1.27;;;19.50;81.30;;;;;;5041025;27;45282;-73
2023/05/10 05:18:37;;;;;;;1.45;1.10;;;19.50;81.20;;;;;;5041702;28;45306;-72
2023/05/10 05:21:04;;;;;;;1.70;1.20;;;19.50;81.20;;;;;;5041201;28;45511;-73
2023/05/10 05:23:31;;;;;;;1.50;1.05;;;19.50;81.10;;;;;;5041038;28;47210;-73
2023/05/10 05:25:57;;;;;;;1.27;1.08;;;19.50;81.20;;;;;;5041385;28;45482;-72
2023/05/10 05:28:26;;;;;;;1.33;1.00;;;19.50;81.10;;;;;;5041322;28;45194;-73
2023/05/10 05:30:52;;;;;;;1.17;0.98;;;19.50;81.10;;;;;;5041368;28;45450;-73
2023/05/10 05:33:19;;;;;;;1.40;1.00;;;19.50;81.00;;;;;;5040804;28;48228;-73
2023/05/10 05:35:50;;;;;;;1.77;1.23;;;19.50;81.00;;;;;;5040634;28;45377;-73
2023/05/10 05:38:17;;;;;;;1.42;1.08;;;19.50;81.00;;;;;;5041476;28;45200;-74
2023/05/10 05:40:43;;;;;;;1.33;1.10;;;19.50;81.00;;;;;;5041464;28;45507;-73
2023/05/10 05:43:11;;;;;;;2.13;1.00;;;19.50;81.10;;;;;;5041101;28;46588;-73
2023/05/10 05:45:39;;;;;;;1.42;1.17;;;19.60;81.10;;;;;;5040281;27;45389;-73
2023/05/10 05:48:06;;;;;;;1.90;1.20;;;19.50;81.00;;;;;;5040863;28;45293;-73
2023/05/10 05:50:33;;;;;;;1.33;1.10;;;19.50;81.00;;;;;;5040970;28;45576;-73
2023/05/10 05:52:59;;;;;;;1.70;0.90;;;19.50;81.00;;;;;;5040841;28;45751;-73
2023/05/10 05:55:26;;;;;;;1.80;1.00;;;19.50;81.00;;;;;;5040360;28;45413;-73
2023/05/10 05:57:53;;;;;;;1.60;1.02;;;19.50;81.00;;;;;;5041053;28;45259;-73
2023/05/10 06:00:21;;;;;;;1.35;1.10;;;19.50;81.00;;;;;;5041259;28;45557;-73
2023/05/10 06:02:49;;;;;;;1.50;1.20;;;19.50;81.00;;;;;;5043219;28;45382;-73
2023/05/10 06:05:16;;;;;;;1.95;1.40;;;19.50;81.00;;;;;;5043704;28;45423;-74
2023/05/10 06:07:42;;;;;;;1.98;1.30;;;19.50;80.90;;;;;;5043963;28;45341;-73
2023/05/10 06:10:09;;;;;;;1.35;1.17;;;19.50;80.90;;;;;;5044191;28;45519;-72
2023/05/10 06:12:36;;;;;;;2.00;1.50;;;19.50;80.90;;;;;;5043461;28;46570;-73
2023/05/10 06:15:03;;;;;;;3.53;1.30;;;19.50;80.80;;;;;;5043467;28;45261;-73
2023/05/10 06:17:30;;;;;;;2.45;1.30;;;19.50;80.70;;;;;;5043705;28;45264;-72
2023/05/10 06:19:58;;;;;;;1.13;1.02;;;19.50;80.80;;;;;;5043472;28;45423;-73
2023/05/10 06:22:25;;;;;;;1.20;1.10;;;19.50;80.80;;;;;;5043416;28;45393;-73
2023/05/10 06:24:52;;;;;;;1.60;1.05;;;19.50;80.70;;;;;;5043098;27;45221;-73
2023/05/10 06:27:19;;;;;;;1.60;1.30;;;19.50;80.80;;;;;;5043356;28;45310;-73
2023/05/10 06:29:45;;;;;;;1.90;1.00;;;19.50;80.80;;;;;;5043597;28;45508;-73
2023/05/10 06:32:12;;;;;;;1.63;1.45;;;19.50;80.80;;;;;;5043101;28;46307;-72
2023/05/10 06:34:39;;;;;;;2.40;1.20;;;19.50;80.80;;;;;;5043410;28;45258;-73
2023/05/10 06:37:07;;;;;;;2.50;1.60;;;19.50;80.70;;;;;;5043338;28;45317;-73
2023/05/10 06:39:34;;;;;;;3.08;1.42;;;19.50;80.80;;;;;;5043650;28;45579;-73
2023/05/10 06:42:01;;;;;;;2.45;1.60;;;19.50;80.70;;;;;;5043731;28;47332;-73
2023/05/10 06:44:28;;;;;;;2.95;1.80;;;19.50;80.70;;;;;;5043320;28;45426;-73
2023/05/10 06:46:56;;;;;;;1.52;1.40;;;19.50;80.70;;;;;;5042857;28;45363;-72
2023/05/10 06:49:23;;;;;;;2.25;1.48;;;19.50;80.70;;;;;;5043367;28;45357;-72
2023/05/10 06:51:49;;;;;;;1.73;1.30;;;19.50;80.80;;;;;;5041607;28;46316;-72
2023/05/10 06:54:17;;;;;;;2.00;1.48;;;19.50;80.80;;;;;;5042963;28;46104;-72
2023/05/10 06:56:44;;;;;;;2.83;1.60;;;19.50;80.80;;;;;;5043319;28;45255;-72
2023/05/10 06:59:12;;;;;;;1.85;1.42;;;19.50;80.80;;;;;;5036866;28;45551;-72
2023/05/10 07:01:39;;;;;;;2.13;1.52;;;19.50;80.80;;;;;;5043127;28;47799;-73
2023/05/10 07:04:07;;;;;;;2.25;1.45;;;19.50;81.80;;;;;;5042641;28;45282;-72
2023/05/10 07:06:34;;;;;;;1.65;1.33;;;19.50;80.70;;;;;;5043616;28;45267;-72
2023/05/10 07:09:01;;;;;;;2.25;1.48;;;19.50;80.70;;;;;;5043195;28;45511;-72
2023/05/10 07:11:29;;;;;;;1.85;1.55;;;19.50;80.70;;;;;;5042541;28;46858;-73
2023/05/10 07:13:56;;;;;;;2.28;1.58;;;19.50;80.60;;;;;;5042685;28;45525;-72
2023/05/10 07:16:22;;;;;;;3.00;1.40;;;19.50;80.60;;;;;;5042618;28;45530;-73
2023/05/10 07:18:50;;;;;;;2.63;1.40;;;19.50;80.70;;;;;;5043284;27;45402;-73
2023/05/10 07:21:17;;;;;;;2.15;1.55;;;19.50;80.70;;;;;;5042994;27;45448;-73
2023/05/10 07:23:44;;;;;;;2.10;1.50;;;19.50;80.70;;;;;;5042426;28;45225;-74
2023/05/10 07:26:11;;;;;;;1.80;1.50;;;19.50;80.70;;;;;;5043016;28;45505;-73
2023/05/10 07:28:39;;;;;;;2.67;1.55;;;19.50;80.70;;;;;;5042770;28;45283;-72
2023/05/10 07:31:06;;;;;;;3.17;1.67;;;19.50;80.70;;;;;;5042788;28;47050;-73
2023/05/10 07:33:32;;;;;;;2.83;1.92;;;19.50;80.70;;;;;;5043090;28;45350;-72
2023/05/10 07:35:59;;;;;;;2.78;1.83;;;19.50;80.50;;;;;;5042512;28;45440;-72
2023/05/10 07:38:26;;;;;;;2.22;1.70;;;19.50;80.60;;;;;;5043021;28;45259;-72
2023/05/10 07:40:52;;;;;;;3.08;1.92;;;19.50;80.50;;;;;;5042334;28;47912;-72
2023/05/10 07:43:19;;;;;;;4.30;2.20;;;19.50;80.50;;;;;;5042838;28;45313;-73
2023/05/10 07:45:47;;;;;;;3.13;2.13;;;19.50;80.50;;;;;;5042098;28;45251;-72
2023/05/10 07:48:14;;;;;;;2.92;1.88;;;19.50;80.60;;;;;;5040209;28;45442;-72
2023/05/10 07:50:41;;;;;;;3.30;2.15;;;19.50;80.60;;;;;;5037189;28;45331;-73
2023/05/10 07:53:08;;;;;;;3.42;2.22;;;19.50;80.50;;;;;;5042080;27;45469;-72
2023/05/10 07:55:35;;;;;;;3.35;2.08;;;19.50;80.50;;;;;;5042736;28;45377;-73
2023/05/10 07:58:01;;;;;;;2.40;1.98;;;19.50;80.50;;;;;;5042534;28;45161;-73
2023/05/10 08:00:28;;;;;;;3.58;2.38;;;19.50;81.60;;;;;;5042421;28;47636;-72
2023/05/10 08:02:56;;;;;;;4.93;2.38;;;19.50;80.50;;;;;;5042054;28;46050;-73
2023/05/10 08:05:23;;;;;;;5.90;2.92;;;19.50;80.50;;;;;;5039664;28;45348;-72
2023/05/10 08:07:50;;;;;;;5.72;3.00;;;19.50;80.50;;;;;;5039874;28;45334;-73
2023/05/10 08:10:17;;;;;;;4.65;3.05;;;19.50;80.50;;;;;;5042174;28;47526;-73
2023/05/10 08:12:43;;;;;;;5.25;2.88;;;19.50;80.50;;;;;;5042002;27;45420;-73
2023/05/10 08:15:11;;;;;;;6.95;3.50;;;19.50;80.50;;;;;;5041998;28;45239;-73
2023/05/10 08:17:38;;;;;;;4.97;3.17;;;19.50;80.40;;;;;;5042399;28;45240;-72
2023/05/10 08:20:07;;;;;;;6.80;3.80;;;19.50;80.50;;;;;;5042050;28;47587;-73
2023/05/10 08:22:34;;;;;;;4.97;3.28;;;19.50;80.60;;;;;;5041866;28;45385;-72
2023/05/10 08:25:01;;;;;;;8.63;3.58;;;19.50;81.60;;;;;;5040454;28;45382;-73
2023/05/10 08:27:27;;;;;;;7.35;3.80;;;19.50;80.50;;;;;;5042193;28;45407;-72
2023/05/10 08:29:54;;;;;;;4.68;2.92;;;19.50;80.50;;;;;;5041581;28;46369;-72
2023/05/10 08:32:21;;;;;;;6.65;3.35;;;19.50;80.50;;;;;;5042020;28;45508;-72
2023/05/10 08:34:48;;;;;;;4.53;3.00;;;19.50;80.40;;;;;;5042229;28;45160;-72
2023/05/10 08:37:16;;;;;;;6.15;3.20;;;19.50;80.30;;;;;;5041720;28;45548;-72
2023/05/10 08:39:43;;;;;;;5.13;3.13;;;19.50;80.20;;;;;;5042134;28;45317;-72
2023/05/10 08:42:10;;;;;;;4.80;3.03;;;19.50;80.20;;;;;;5042188;28;45333;-72
2023/05/10 08:44:37;;;;;;;4.55;3.10;;;19.50;80.20;;;;;;5042313;28;45281;-71
2023/05/10 08:47:07;;;;;;;5.45;3.35;;;19.50;80.10;;;;;;5041222;28;45551;-72
2023/05/10 08:49:34;;;;;;;5.30;3.25;;;19.50;80.10;;;;;;5041787;28;45413;-72
2023/05/10 08:52:05;;;;;;;5.50;3.40;;;19.50;81.00;;;;;;5040910;28;45366;-72
2023/05/10 08:54:34;;;;;;;5.75;3.40;;;19.50;80.00;;;;;;5042074;28;45244;-72
2023/05/10 08:57:01;;;;;;;4.78;3.15;;;19.50;80.00;;;;;;5041415;28;45446;-72
2023/05/10 08:59:28;;;;;;;5.65;3.38;;;19.50;80.00;;;;;;5041354;28;46446;-72
2023/05/10 09:01:58;;;;;;;5.13;2.95;;;19.50;79.90;;;;;;5041341;28;45232;-72
2023/05/10 09:04:25;;;;;;;4.43;3.30;;;19.50;79.80;;;;;;5041682;27;45263;-72
2023/05/10 09:06:52;;;;;;;5.32;3.13;;;19.50;79.70;;;;;;5041458;28;45550;-72
2023/05/10 09:09:20;;;;;;;5.45;3.60;;;19.50;79.80;;;;;;5041627;28;45204;-72
2023/05/10 09:11:48;;;;;;;4.47;2.80;;;19.50;79.60;;;;;;5041327;28;45291;-72
2023/05/10 09:14:17;;;;;;;4.20;3.03;;;19.50;79.70;;;;;;5033952;28;45452;-72
2023/05/10 09:16:44;;;;;;;5.30;3.08;;;19.50;79.60;;;;;;5041976;27;45183;-72
2023/05/10 09:19:11;;;;;;;3.80;2.72;;;19.50;79.60;;;;;;5033207;28;46604;-73
2023/05/10 09:21:38;;;;;;;4.75;2.92;;;19.50;79.60;;;;;;5041548;28;45596;-73
2023/05/10 09:24:06;;;;;;;4.97;3.15;;;19.50;79.60;;;;;;5041111;27;45405;-73
2023/05/10 09:26:33;;;;;;;4.72;3.03;;;19.50;79.70;;;;;;5041350;28;45250;-73
2023/05/10 09:29:02;;;;;;;5.00;2.97;;;19.50;79.70;;;;;;5040990;28;47291;-73
2023/05/10 09:31:44;;;;;;;3.80;2.90;;;19.50;79.70;;;;;;5041344;28;45246;-72
2023/05/10 09:34:11;;;;;;;4.55;3.20;;;19.50;79.60;;;;;;5039644;28;45306;-73
2023/05/10 09:36:54;;;;;;;5.78;3.30;;;19.50;79.60;;;;;;5041332;28;45277;-72
2023/05/10 09:39:21;;;;;;;4.57;3.03;;;19.50;79.60;;;;;;5026295;28;45474;-72
2023/05/10 09:41:49;;;;;;;4.47;2.65;;;19.50;79.60;;;;;;5040833;28;45475;-72
2023/05/10 09:44:20;;;;;;;4.40;2.85;;;19.50;79.60;;;;;;5040803;28;45365;-73
2023/05/10 09:46:52;;;;;;;3.80;2.58;;;19.50;79.60;;;;;;5039896;27;45466;-73
2023/05/10 09:49:19;;;;;;;4.07;2.67;;;19.50;79.60;;;;;;5026604;28;45337;-73
2023/05/10 09:51:46;;;;;;;4.15;2.72;;;19.50;79.70;;;;;;5039058;28;45266;-73
2023/05/10 09:54:14;;;;;;;5.25;3.13;;;19.50;79.60;;;;;;5040821;28;45334;-73
2023/05/10 09:56:41;;;;;;;4.65;3.25;;;19.50;79.50;;;;;;5041635;28;45273;-73
2023/05/10 09:59:10;;;;;;;4.10;3.00;;;19.50;79.40;;;;;;5040580;27;46301;-73
2023/05/10 10:01:38;;;;;;;4.07;3.08;;;19.50;79.50;;;;;;5040808;28;46137;-72
2023/05/10 10:04:07;;;;;;;3.83;2.90;;;19.50;79.50;;;;;;5040782;28;45256;-73
2023/05/10 10:06:38;;;;;;;4.53;2.80;;;19.50;79.50;;;;;;5040261;28;45435;-73
2023/05/10 10:09:05;;;;;;;4.63;2.55;;;19.50;79.50;;;;;;5040330;28;45347;-73
2023/05/10 10:11:32;;;;;;;3.13;2.53;;;19.50;79.50;;;;;;5040894;28;45246;-72
2023/05/10 10:13:59;;;;;;;4.97;2.67;;;19.50;79.50;;;;;;5040579;28;46212;-72
2023/05/10 10:16:27;;;;;;;4.03;2.53;;;19.50;79.40;;;;;;5040696;28;45443;-72
2023/05/10 10:18:55;;;;;;;4.43;2.88;;;19.60;79.50;;;;;;5040322;28;46281;-73
2023/05/10 10:21:23;;;;;;;4.55;2.90;;;19.60;79.40;;;;;;5040540;27;45351;-72
2023/05/10 10:23:50;;;;;;;3.85;2.72;;;19.50;79.30;;;;;;5040130;28;45343;-73
2023/05/10 10:26:19;;;;;;;3.72;2.50;;;19.50;79.20;;;;;;5041140;28;45362;-74
2023/05/10 10:28:52;;;;;;;3.80;2.35;;;19.50;79.20;;;;;;5039841;28;48077;-73
2023/05/10 10:31:28;;;;;;;5.35;2.90;;;19.50;79.20;;;;;;5040276;28;45333;-72
2023/05/10 10:34:02;;;;;;;4.90;2.70;;;19.50;79.10;;;;;;5040389;28;45323;-73
2023/05/10 10:36:30;;;;;;;4.03;2.85;;;19.50;79.10;;;;;;5040694;28;45471;-73
2023/05/10 10:39:00;;;;;;;2.70;2.28;;;19.50;79.00;;;;;;5040275;28;47516;-73
2023/05/10 10:41:32;;;;;;;3.13;2.20;;;19.50;78.90;;;;;;5040098;28;45362;-72
2023/05/10 10:44:24;;;;;;;3.13;2.33;;;19.50;79.10;;;;;;5040346;28;45325;-72
2023/05/10 10:47:02;;;;;;;4.60;2.42;;;19.50;79.00;;;;;;5039486;28;45294;-72
2023/05/10 10:49:32;;;;;;;3.53;2.20;;;19.50;78.90;;;;;;5023378;28;45376;-73
2023/05/10 10:52:16;;;;;;;3.78;2.33;;;19.50;79.90;;;;;;5040524;28;45305;-73
2023/05/10 10:54:50;;;;;;;3.35;2.40;;;19.50;78.80;;;;;;5043355;28;45478;-73
2023/05/10 10:57:21;;;;;;;3.15;2.47;;;19.50;78.80;;;;;;5043549;28;45247;-72
2023/05/10 10:59:48;;;;;;;2.53;2.03;;;19.60;78.90;;;;;;5043351;28;47913;-73
2023/05/10 11:02:34;;;;;;;3.30;2.33;;;19.60;78.90;;;;;;5043366;28;45221;-73
2023/05/10 11:05:33;;;;;;;3.08;2.22;;;19.60;78.90;;;;;;5042874;28;45247;-73
2023/05/10 11:08:07;;;;;;;3.97;2.03;;;19.60;78.80;;;;;;5042897;27;45607;-73
2023/05/10 11:10:33;;;;;;;3.03;2.28;;;19.60;78.70;;;;;;5041660;28;45441;-72
2023/05/10 11:13:02;;;;;;;3.05;2.15;;;19.50;78.50;;;;;;5042766;28;45420;-73
2023/05/10 11:15:33;;;;;;;3.63;2.30;;;19.50;78.60;;;;;;5042755;28;45527;-71
2023/05/10 11:18:00;;;;;;;3.22;2.40;;;19.60;78.70;;;;;;5043200;28;45351;-73
2023/05/10 11:20:39;;;;;;;3.33;2.50;;;19.50;78.50;;;;;;5043013;28;46657;-73
2023/05/10 11:23:15;;;;;;;2.90;2.22;;;19.50;78.50;;;;;;5042925;28;45373;-73
2023/05/10 11:25:43;;;;;;;4.05;2.38;;;19.50;78.50;;;;;;5042994;27;45298;-73
2023/05/10 11:28:10;;;;;;;5.18;2.30;;;19.50;79.60;;;;;;5035027;28;45595;-73
2023/05/10 11:30:38;;;;;;;3.63;2.50;;;19.50;78.50;;;;;;5042651;28;45453;-73
2023/05/10 11:33:06;;;;;;;2.42;1.80;;;19.50;78.60;;;;;;5042941;28;45213;-73
2023/05/10 11:35:38;;;;;;;2.70;1.98;;;19.60;78.70;;;;;;5042556;28;45307;-73
2023/05/10 11:38:07;;;;;;;2.75;1.88;;;19.50;78.70;;;;;;5043231;28;45282;-73
2023/05/10 11:40:34;;;;;;;3.08;2.10;;;19.60;78.80;;;;;;5042638;28;45468;-73
2023/05/10 11:43:00;;;;;;;2.00;1.67;;;19.60;78.80;;;;;;5042485;28;45365;-73
2023/05/10 11:45:28;;;;;;;2.63;1.90;;;19.60;78.80;;;;;;5041783;27;45279;-73
2023/05/10 11:47:55;;;;;;;3.00;1.70;;;19.60;78.70;;;;;;5042736;28;45569;-73
2023/05/10 11:50:22;;;;;;;2.75;1.90;;;19.60;78.80;;;;;;5041458;28;46066;-73
2023/05/10 11:52:53;;;;;;;2.92;1.90;;;19.60;78.70;;;;;;5041149;28;45475;-73
2023/05/10 11:55:20;;;;;;;3.15;2.10;;;19.60;78.80;;;;;;5042502;28;45350;-73
2023/05/10 11:57:47;;;;;;;2.22;1.83;;;19.60;78.70;;;;;;5042348;28;45384;-73
2023/05/10 12:00:14;;;;;;;2.78;2.03;;;19.60;78.60;;;;;;5037235;28;48068;-73
2023/05/10 12:02:42;;;;;;;2.45;1.98;;;19.60;78.70;;;;;;5038458;28;45385;-73
2023/05/10 12:05:09;;;;;;;3.05;2.10;;;19.60;78.70;;;;;;5041918;28;45346;-73
2023/05/10 12:07:36;;;;;;;2.92;2.22;;;19.50;78.50;;;;;;5042828;27;45146;-73
2023/05/10 12:10:09;;;;;;;2.28;1.85;;;19.50;78.50;;;;;;5041931;28;46590;-73
2023/05/10 12:12:41;;;;;;;2.83;1.77;;;19.50;79.60;;;;;;5042606;28;45427;-73
2023/05/10 12:15:12;;;;;;;2.95;2.13;;;19.50;78.50;;;;;;5042156;28;45305;-73
2023/05/10 12:17:40;;;;;;;2.92;2.10;;;19.60;78.70;;;;;;5042576;28;45310;-73
2023/05/10 12:20:20;;;;;;;1.85;1.58;;;19.60;78.60;;;;;;5042193;28;46597;-73
2023/05/10 12:22:51;;;;;;;2.45;1.98;;;19.50;78.40;;;;;;5042350;28;45233;-72
2023/05/10 12:25:21;;;;;;;2.67;1.95;;;19.60;78.50;;;;;;5042336;28;45276;-73
2023/05/10 12:27:52;;;;;;;2.42;1.80;;;19.60;78.60;;;;;;5042331;28;45405;-72
2023/05/10 12:30:21;;;;;;;4.35;2.20;;;19.60;78.50;;;;;;5041974;28;48682;-74
2023/05/10 12:32:48;;;;;;;3.00;1.85;;;19.60;78.40;;;;;;5042355;28;45270;-73
2023/05/10 12:35:16;;;;;;;2.35;1.75;;;19.60;78.50;;;;;;5041781;28;45259;-72
2023/05/10 12:37:43;;;;;;;2.20;1.85;;;19.60;78.40;;;;;;5042067;28;45493;-73
2023/05/10 12:40:11;;;;;;;2.45;1.88;;;19.60;78.40;;;;;;5042026;28;47455;-73
2023/05/10 12:42:40;;;;;;;1.73;1.40;;;19.60;78.40;;;;;;5041747;28;45377;-73
2023/05/10 12:45:09;;;;;;;2.47;1.70;;;19.60;78.40;;;;;;5041764;27;45373;-73
2023/05/10 12:47:36;;;;;;;2.08;1.60;;;19.60;78.30;;;;;;5035211;28;45551;-73
2023/05/10 12:50:03;;;;;;;1.65;1.55;;;19.60;78.40;;;;;;5041012;28;46969;-73
2023/05/10 12:52:31;;;;;;;2.20;1.90;;;19.60;78.40;;;;;;5041156;28;45275;-72
2023/05/10 12:54:58;;;;;;;2.00;1.70;;;19.60;78.40;;;;;;5041740;28;45312;-73